sensor_id;sensor_type;location;lat;lon;timestamp;temperature;humidity
20315;DHT22;10315;50.958;13.080;2022-09-09T00:05:34;12.50;99.90
20315;DHT22;10315;50.958;13.080;2022-09-09T00:15:42;12.60;99.90
20315;DHT22;10315;50.958;13.080;2022-09-09T00:25:51;12.50;99.90
20315;DHT22;10315;50.958;13.080;2022-09-09T00:35:57;12.20;99.90
20315;DHT22;10315;50.958;13.080;2022-09-09T00:56:37;11.70;99.90
20315;DHT22;10315;50.958;13.080;2022-09-09T01:06:43;11.60;99.90
20315;DHT22;10315;50.958;13.080;2022-09-09T01:16:51;11.90;99.90
20315;DHT22;10315;50.958;13.080;2022-09-09T01:26:59;11.90;99.90
20315;DHT22;10315;50.958;13.080;2022-09-09T01:37:04;12.10;99.90
20315;DHT22;10315;50.958;13.080;2022-09-09T01:47:07;12.40;99.90
20315;DHT22;10315;50.958;13.080;2022-09-09T01:57:17;12.30;99.90
20315;DHT22;10315;50.958;13.080;2022-09-09T02:07:32;12.40;99.90
20315;DHT22;10315;50.958;13.080;2022-09-09T02:17:36;12.40;99.90
20315;DHT22;10315;50.958;13.080;2022-09-09T02:27:44;12.50;99.90
20315;DHT22;10315;50.958;13.080;2022-09-09T02:37:47;12.50;99.90
20315;DHT22;10315;50.958;13.080;2022-09-09T02:47:55;12.50;99.90
20315;DHT22;10315;50.958;13.080;2022-09-09T02:58:02;12.50;99.90
20315;DHT22;10315;50.958;13.080;2022-09-09T03:08:06;12.40;99.90
20315;DHT22;10315;50.958;13.080;2022-09-09T03:18:08;12.30;99.90
20315;DHT22;10315;50.958;13.080;2022-09-09T03:28:11;12.20;99.90
20315;DHT22;10315;50.958;13.080;2022-09-09T03:38:13;11.90;99.90
20315;DHT22;10315;50.958;13.080;2022-09-09T03:48:16;12.00;99.90
20315;DHT22;10315;50.958;13.080;2022-09-09T03:58:18;12.10;99.90
20315;DHT22;10315;50.958;13.080;2022-09-09T04:08:21;12.30;99.90
20315;DHT22;10315;50.958;13.080;2022-09-09T04:18:25;12.20;99.90
20315;DHT22;10315;50.958;13.080;2022-09-09T04:28:45;12.20;99.90
20315;DHT22;10315;50.958;13.080;2022-09-09T04:38:47;12.30;99.90
20315;DHT22;10315;50.958;13.080;2022-09-09T04:48:51;12.30;99.90
20315;DHT22;10315;50.958;13.080;2022-09-09T04:58:54;12.20;99.90
20315;DHT22;10315;50.958;13.080;2022-09-09T05:08:57;12.60;99.90
20315;DHT22;10315;50.958;13.080;2022-09-09T05:19:02;12.70;99.90
20315;DHT22;10315;50.958;13.080;2022-09-09T05:29:05;13.00;99.90
20315;DHT22;10315;50.958;13.080;2022-09-09T05:39:07;13.20;99.90
20315;DHT22;10315;50.958;13.080;2022-09-09T05:49:10;13.30;99.90
20315;DHT22;10315;50.958;13.080;2022-09-09T05:59:11;13.20;99.90
20315;DHT22;10315;50.958;13.080;2022-09-09T06:09:14;13.90;99.90
20315;DHT22;10315;50.958;13.080;2022-09-09T06:19:16;14.30;99.90
20315;DHT22;10315;50.958;13.080;2022-09-09T06:29:19;15.40;99.90
20315;DHT22;10315;50.958;13.080;2022-09-09T06:39:20;15.50;99.90
20315;DHT22;10315;50.958;13.080;2022-09-09T06:49:23;17.50;99.90
20315;DHT22;10315;50.958;13.080;2022-09-09T06:59:25;19.20;99.90
20315;DHT22;10315;50.958;13.080;2022-09-09T07:09:32;20.90;99.90
20315;DHT22;10315;50.958;13.080;2022-09-09T07:19:37;18.20;99.90
20315;DHT22;10315;50.958;13.080;2022-09-09T07:29:40;17.20;99.90
20315;DHT22;10315;50.958;13.080;2022-09-09T07:39:41;16.70;99.90
20315;DHT22;10315;50.958;13.080;2022-09-09T07:49:44;16.60;99.90
20315;DHT22;10315;50.958;13.080;2022-09-09T07:59:47;16.50;99.90
20315;DHT22;10315;50.958;13.080;2022-09-09T08:09:50;16.50;99.90
20315;DHT22;10315;50.958;13.080;2022-09-09T08:19:51;17.70;99.90
20315;DHT22;10315;50.958;13.080;2022-09-09T08:29:55;17.70;99.90
20315;DHT22;10315;50.958;13.080;2022-09-09T08:39:57;18.00;99.90
20315;DHT22;10315;50.958;13.080;2022-09-09T08:50:13;21.10;99.90
20315;DHT22;10315;50.958;13.080;2022-09-09T09:00:17;21.20;99.90
20315;DHT22;10315;50.958;13.080;2022-09-09T09:10:31;20.60;99.90
20315;DHT22;10315;50.958;13.080;2022-09-09T09:20:38;20.30;99.90
20315;DHT22;10315;50.958;13.080;2022-09-09T09:30:49;22.00;99.90
20315;DHT22;10315;50.958;13.080;2022-09-09T09:40:55;23.40;99.90
20315;DHT22;10315;50.958;13.080;2022-09-09T10:01:04;24.90;99.90
20315;DHT22;10315;50.958;13.080;2022-09-09T10:11:23;25.10;99.90
20315;DHT22;10315;50.958;13.080;2022-09-09T10:21:43;24.10;99.90
20315;DHT22;10315;50.958;13.080;2022-09-09T10:31:58;23.20;99.90
20315;DHT22;10315;50.958;13.080;2022-09-09T10:42:06;21.20;99.90
20315;DHT22;10315;50.958;13.080;2022-09-09T10:52:18;22.40;99.90
20315;DHT22;10315;50.958;13.080;2022-09-09T11:02:27;23.70;99.90
20315;DHT22;10315;50.958;13.080;2022-09-09T11:12:39;24.30;99.90
20315;DHT22;10315;50.958;13.080;2022-09-09T11:22:51;24.50;99.90
20315;DHT22;10315;50.958;13.080;2022-09-09T11:43:30;24.50;99.90
20315;DHT22;10315;50.958;13.080;2022-09-09T11:53:35;24.90;99.90
20315;DHT22;10315;50.958;13.080;2022-09-09T12:03:43;25.20;99.90
20315;DHT22;10315;50.958;13.080;2022-09-09T12:13:54;24.10;99.90
20315;DHT22;10315;50.958;13.080;2022-09-09T12:23:58;24.10;99.90
20315;DHT22;10315;50.958;13.080;2022-09-09T12:34:10;24.10;99.90
20315;DHT22;10315;50.958;13.080;2022-09-09T12:44:12;24.10;99.90
20315;DHT22;10315;50.958;13.080;2022-09-09T12:54:16;23.90;99.90
20315;DHT22;10315;50.958;13.080;2022-09-09T13:04:20;24.70;99.90
20315;DHT22;10315;50.958;13.080;2022-09-09T13:14:29;25.00;99.90
20315;DHT22;10315;50.958;13.080;2022-09-09T13:24:34;23.70;99.90
20315;DHT22;10315;50.958;13.080;2022-09-09T13:34:37;24.70;99.90
20315;DHT22;10315;50.958;13.080;2022-09-09T13:44:40;24.80;99.90
20315;DHT22;10315;50.958;13.080;2022-09-09T13:54:47;24.20;99.90
20315;DHT22;10315;50.958;13.080;2022-09-09T14:04:49;24.70;99.90
20315;DHT22;10315;50.958;13.080;2022-09-09T14:14:56;24.20;99.90
20315;DHT22;10315;50.958;13.080;2022-09-09T14:25:01;24.20;99.90
20315;DHT22;10315;50.958;13.080;2022-09-09T14:35:04;24.10;99.90
20315;DHT22;10315;50.958;13.080;2022-09-09T14:45:07;24.00;99.90
20315;DHT22;10315;50.958;13.080;2022-09-09T14:55:11;23.70;99.90
20315;DHT22;10315;50.958;13.080;2022-09-09T15:05:13;22.80;99.90
20315;DHT22;10315;50.958;13.080;2022-09-09T15:15:16;21.70;99.90
20315;DHT22;10315;50.958;13.080;2022-09-09T15:25:18;21.30;99.90
20315;DHT22;10315;50.958;13.080;2022-09-09T15:35:21;21.10;99.90
20315;DHT22;10315;50.958;13.080;2022-09-09T15:45:23;20.80;99.90
20315;DHT22;10315;50.958;13.080;2022-09-09T15:55:35;20.40;99.90
20315;DHT22;10315;50.958;13.080;2022-09-09T16:05:36;20.40;99.90
20315;DHT22;10315;50.958;13.080;2022-09-09T16:15:40;21.30;99.90
20315;DHT22;10315;50.958;13.080;2022-09-09T16:25:42;21.10;99.90
20315;DHT22;10315;50.958;13.080;2022-09-09T16:35:46;20.50;99.90
20315;DHT22;10315;50.958;13.080;2022-09-09T17:18:41;18.80;99.90
20315;DHT22;10315;50.958;13.080;2022-09-09T17:28:43;18.20;99.90
20315;DHT22;10315;50.958;13.080;2022-09-09T17:38:47;18.00;99.90
20315;DHT22;10315;50.958;13.080;2022-09-09T17:48:50;17.70;99.90
20315;DHT22;10315;50.958;13.080;2022-09-09T17:58:54;17.50;99.90
20315;DHT22;10315;50.958;13.080;2022-09-09T18:08:58;17.00;99.90
20315;DHT22;10315;50.958;13.080;2022-09-09T18:19:04;16.70;99.90
20315;DHT22;10315;50.958;13.080;2022-09-09T18:29:09;16.60;99.90
20315;DHT22;10315;50.958;13.080;2022-09-09T18:39:15;16.30;99.90
20315;DHT22;10315;50.958;13.080;2022-09-09T18:49:21;16.00;99.90
20315;DHT22;10315;50.958;13.080;2022-09-09T18:59:29;15.90;99.90
20315;DHT22;10315;50.958;13.080;2022-09-09T19:09:32;15.50;99.90
20315;DHT22;10315;50.958;13.080;2022-09-09T19:19:35;15.30;99.90
20315;DHT22;10315;50.958;13.080;2022-09-09T19:29:37;15.20;99.90
20315;DHT22;10315;50.958;13.080;2022-09-09T19:39:43;15.00;99.90
20315;DHT22;10315;50.958;13.080;2022-09-09T20:00:44;15.00;99.90
20315;DHT22;10315;50.958;13.080;2022-09-09T20:10:52;14.80;99.90
20315;DHT22;10315;50.958;13.080;2022-09-09T20:20:57;14.90;99.90
20315;DHT22;10315;50.958;13.080;2022-09-09T20:31:02;14.90;99.90
20315;DHT22;10315;50.958;13.080;2022-09-09T20:41:06;14.80;99.90
20315;DHT22;10315;50.958;13.080;2022-09-09T20:51:14;14.90;99.90
20315;DHT22;10315;50.958;13.080;2022-09-09T21:01:19;14.80;99.90
20315;DHT22;10315;50.958;13.080;2022-09-09T21:11:21;14.80;99.90
20315;DHT22;10315;50.958;13.080;2022-09-09T21:21:25;14.70;99.90
20315;DHT22;10315;50.958;13.080;2022-09-09T21:31:27;14.80;99.90
20315;DHT22;10315;50.958;13.080;2022-09-09T21:41:30;14.70;99.90
20315;DHT22;10315;50.958;13.080;2022-09-09T21:51:31;14.50;99.90
20315;DHT22;10315;50.958;13.080;2022-09-09T22:01:34;14.30;99.90
20315;DHT22;10315;50.958;13.080;2022-09-09T22:11:36;14.50;99.90
20315;DHT22;10315;50.958;13.080;2022-09-09T22:21:39;14.40;99.90
20315;DHT22;10315;50.958;13.080;2022-09-09T22:31:40;14.30;99.90
20315;DHT22;10315;50.958;13.080;2022-09-09T22:41:44;14.20;99.90
20315;DHT22;10315;50.958;13.080;2022-09-09T22:51:47;13.90;99.90
20315;DHT22;10315;50.958;13.080;2022-09-09T23:01:50;13.90;99.90
20315;DHT22;10315;50.958;13.080;2022-09-09T23:11:52;13.80;99.90
20315;DHT22;10315;50.958;13.080;2022-09-09T23:21:56;13.50;99.90
20315;DHT22;10315;50.958;13.080;2022-09-09T23:31:58;13.40;99.90
20315;DHT22;10315;50.958;13.080;2022-09-09T23:42:02;13.40;99.90
20315;DHT22;10315;50.958;13.080;2022-09-09T23:52:06;13.30;99.90
